sensor_id;sensor_type;location;lat;lon;timestamp;P1;durP1;ratioP1;P2;durP2;ratioP2
20655;SDS011;10487;53.320;8.672;2022-12-18T00:01:28;0.87;;;0.50;;
20655;SDS011;10487;53.320;8.672;2022-12-18T00:04:36;0.40;;;0.40;;
20655;SDS011;10487;53.320;8.672;2022-12-18T00:07:38;0.67;;;0.50;;
20655;SDS011;10487;53.320;8.672;2022-12-18T00:10:40;0.50;;;0.40;;
20655;SDS011;10487;53.320;8.672;2022-12-18T00:13:41;1.63;;;0.40;;
20655;SDS011;10487;53.320;8.672;2022-12-18T00:16:44;0.57;;;0.57;;
20655;SDS011;10487;53.320;8.672;2022-12-18T00:19:46;0.50;;;0.40;;
20655;SDS011;10487;53.320;8.672;2022-12-18T00:22:48;0.90;;;0.47;;
20655;SDS011;10487;53.320;8.672;2022-12-18T00:25:49;0.50;;;0.30;;
20655;SDS011;10487;53.320;8.672;2022-12-18T00:28:51;0.60;;;0.43;;
20655;SDS011;10487;53.320;8.672;2022-12-18T00:31:54;0.57;;;0.40;;
20655;SDS011;10487;53.320;8.672;2022-12-18T00:34:55;0.80;;;0.47;;
20655;SDS011;10487;53.320;8.672;2022-12-18T00:37:57;0.90;;;0.57;;
20655;SDS011;10487;53.320;8.672;2022-12-18T00:40:58;0.60;;;0.40;;
20655;SDS011;10487;53.320;8.672;2022-12-18T00:44:01;0.40;;;0.33;;
20655;SDS011;10487;53.320;8.672;2022-12-18T00:47:03;0.40;;;0.40;;
20655;SDS011;10487;53.320;8.672;2022-12-18T00:50:05;0.70;;;0.50;;
20655;SDS011;10487;53.320;8.672;2022-12-18T00:53:10;0.90;;;0.40;;
20655;SDS011;10487;53.320;8.672;2022-12-18T00:56:12;0.70;;;0.40;;
20655;SDS011;10487;53.320;8.672;2022-12-18T00:59:14;0.57;;;0.40;;
20655;SDS011;10487;53.320;8.672;2022-12-18T01:02:16;0.47;;;0.40;;
20655;SDS011;10487;53.320;8.672;2022-12-18T01:05:18;0.50;;;0.50;;
20655;SDS011;10487;53.320;8.672;2022-12-18T01:08:19;1.00;;;0.60;;
20655;SDS011;10487;53.320;8.672;2022-12-18T01:11:21;0.57;;;0.40;;
20655;SDS011;10487;53.320;8.672;2022-12-18T01:14:23;0.50;;;0.40;;
20655;SDS011;10487;53.320;8.672;2022-12-18T01:17:25;0.70;;;0.50;;
20655;SDS011;10487;53.320;8.672;2022-12-18T01:20:26;0.57;;;0.40;;
20655;SDS011;10487;53.320;8.672;2022-12-18T01:23:28;0.40;;;0.40;;
20655;SDS011;10487;53.320;8.672;2022-12-18T01:26:30;0.60;;;0.43;;
20655;SDS011;10487;53.320;8.672;2022-12-18T01:29:31;0.37;;;0.30;;
20655;SDS011;10487;53.320;8.672;2022-12-18T01:32:33;0.77;;;0.50;;
20655;SDS011;10487;53.320;8.672;2022-12-18T01:35:39;0.50;;;0.40;;
20655;SDS011;10487;53.320;8.672;2022-12-18T01:38:42;0.60;;;0.40;;
20655;SDS011;10487;53.320;8.672;2022-12-18T01:41:44;0.77;;;0.47;;
20655;SDS011;10487;53.320;8.672;2022-12-18T01:48:12;0.60;;;0.50;;
20655;SDS011;10487;53.320;8.672;2022-12-18T01:51:14;1.23;;;0.50;;
20655;SDS011;10487;53.320;8.672;2022-12-18T01:54:16;0.90;;;0.50;;
20655;SDS011;10487;53.320;8.672;2022-12-18T01:57:17;0.40;;;0.40;;
20655;SDS011;10487;53.320;8.672;2022-12-18T02:00:20;0.80;;;0.57;;
20655;SDS011;10487;53.320;8.672;2022-12-18T02:03:23;0.87;;;0.60;;
20655;SDS011;10487;53.320;8.672;2022-12-18T02:06:29;0.40;;;0.40;;
20655;SDS011;10487;53.320;8.672;2022-12-18T02:09:42;0.60;;;0.40;;
20655;SDS011;10487;53.320;8.672;2022-12-18T02:12:54;0.47;;;0.40;;
20655;SDS011;10487;53.320;8.672;2022-12-18T02:16:51;0.40;;;0.40;;
20655;SDS011;10487;53.320;8.672;2022-12-18T02:19:50;0.57;;;0.50;;
20655;SDS011;10487;53.320;8.672;2022-12-18T02:23:06;0.80;;;0.40;;
20655;SDS011;10487;53.320;8.672;2022-12-18T02:26:22;0.40;;;0.40;;
20655;SDS011;10487;53.320;8.672;2022-12-18T02:29:33;0.73;;;0.50;;
20655;SDS011;10487;53.320;8.672;2022-12-18T02:32:43;0.97;;;0.40;;
20655;SDS011;10487;53.320;8.672;2022-12-18T02:35:49;0.40;;;0.40;;
20655;SDS011;10487;53.320;8.672;2022-12-18T02:38:55;0.40;;;0.40;;
20655;SDS011;10487;53.320;8.672;2022-12-18T02:41:58;0.50;;;0.50;;
20655;SDS011;10487;53.320;8.672;2022-12-18T02:45:02;0.60;;;0.50;;
20655;SDS011;10487;53.320;8.672;2022-12-18T02:48:04;0.70;;;0.40;;
20655;SDS011;10487;53.320;8.672;2022-12-18T02:51:23;0.50;;;0.40;;
20655;SDS011;10487;53.320;8.672;2022-12-18T03:05:02;0.53;;;0.50;;
20655;SDS011;10487;53.320;8.672;2022-12-18T03:08:19;0.67;;;0.60;;
20655;SDS011;10487;53.320;8.672;2022-12-18T03:11:24;0.40;;;0.40;;
20655;SDS011;10487;53.320;8.672;2022-12-18T03:14:54;0.70;;;0.50;;
20655;SDS011;10487;53.320;8.672;2022-12-18T03:18:06;0.93;;;0.50;;
20655;SDS011;10487;53.320;8.672;2022-12-18T03:21:12;0.50;;;0.50;;
20655;SDS011;10487;53.320;8.672;2022-12-18T03:24:15;0.40;;;0.40;;
20655;SDS011;10487;53.320;8.672;2022-12-18T03:27:20;0.40;;;0.40;;
20655;SDS011;10487;53.320;8.672;2022-12-18T03:30:25;0.50;;;0.37;;
20655;SDS011;10487;53.320;8.672;2022-12-18T03:36:38;0.40;;;0.40;;
20655;SDS011;10487;53.320;8.672;2022-12-18T03:39:40;0.43;;;0.43;;
20655;SDS011;10487;53.320;8.672;2022-12-18T03:52:32;0.60;;;0.50;;
20655;SDS011;10487;53.320;8.672;2022-12-18T03:55:54;0.37;;;0.37;;
20655;SDS011;10487;53.320;8.672;2022-12-18T03:58:57;0.47;;;0.47;;
20655;SDS011;10487;53.320;8.672;2022-12-18T04:02:02;0.40;;;0.40;;
20655;SDS011;10487;53.320;8.672;2022-12-18T04:05:07;0.50;;;0.37;;
20655;SDS011;10487;53.320;8.672;2022-12-18T04:08:11;0.60;;;0.40;;
20655;SDS011;10487;53.320;8.672;2022-12-18T04:11:13;0.57;;;0.40;;
20655;SDS011;10487;53.320;8.672;2022-12-18T04:14:15;0.33;;;0.30;;
20655;SDS011;10487;53.320;8.672;2022-12-18T04:17:18;0.70;;;0.50;;
20655;SDS011;10487;53.320;8.672;2022-12-18T04:20:20;0.47;;;0.40;;
20655;SDS011;10487;53.320;8.672;2022-12-18T04:23:22;1.37;;;0.50;;
20655;SDS011;10487;53.320;8.672;2022-12-18T04:26:24;0.53;;;0.40;;
20655;SDS011;10487;53.320;8.672;2022-12-18T04:29:25;0.40;;;0.40;;
20655;SDS011;10487;53.320;8.672;2022-12-18T04:32:27;0.50;;;0.50;;
20655;SDS011;10487;53.320;8.672;2022-12-18T04:35:28;0.40;;;0.40;;
20655;SDS011;10487;53.320;8.672;2022-12-18T04:38:30;0.60;;;0.50;;
20655;SDS011;10487;53.320;8.672;2022-12-18T04:41:32;0.40;;;0.40;;
20655;SDS011;10487;53.320;8.672;2022-12-18T04:44:33;0.53;;;0.40;;
20655;SDS011;10487;53.320;8.672;2022-12-18T04:47:35;0.53;;;0.47;;
20655;SDS011;10487;53.320;8.672;2022-12-18T04:50:37;0.40;;;0.40;;
20655;SDS011;10487;53.320;8.672;2022-12-18T04:53:38;0.30;;;0.30;;
20655;SDS011;10487;53.320;8.672;2022-12-18T04:56:40;0.67;;;0.47;;
20655;SDS011;10487;53.320;8.672;2022-12-18T04:59:42;0.30;;;0.30;;
20655;SDS011;10487;53.320;8.672;2022-12-18T05:02:43;0.90;;;0.40;;
20655;SDS011;10487;53.320;8.672;2022-12-18T05:05:48;1.33;;;0.40;;
20655;SDS011;10487;53.320;8.672;2022-12-18T05:08:51;0.50;;;0.40;;
20655;SDS011;10487;53.320;8.672;2022-12-18T05:11:53;0.57;;;0.40;;
20655;SDS011;10487;53.320;8.672;2022-12-18T05:14:54;0.30;;;0.30;;
20655;SDS011;10487;53.320;8.672;2022-12-18T05:17:56;0.37;;;0.37;;
20655;SDS011;10487;53.320;8.672;2022-12-18T05:20:59;0.30;;;0.30;;
20655;SDS011;10487;53.320;8.672;2022-12-18T05:24:01;0.30;;;0.30;;
20655;SDS011;10487;53.320;8.672;2022-12-18T05:27:02;0.40;;;0.40;;
20655;SDS011;10487;53.320;8.672;2022-12-18T05:30:04;0.40;;;0.37;;
20655;SDS011;10487;53.320;8.672;2022-12-18T05:33:06;0.30;;;0.30;;
20655;SDS011;10487;53.320;8.672;2022-12-18T05:36:08;0.97;;;0.27;;
20655;SDS011;10487;53.320;8.672;2022-12-18T05:39:10;0.30;;;0.30;;
20655;SDS011;10487;53.320;8.672;2022-12-18T05:42:12;0.40;;;0.40;;
20655;SDS011;10487;53.320;8.672;2022-12-18T05:45:14;0.30;;;0.27;;
20655;SDS011;10487;53.320;8.672;2022-12-18T05:48:15;0.40;;;0.40;;
20655;SDS011;10487;53.320;8.672;2022-12-18T05:51:18;0.30;;;0.30;;
20655;SDS011;10487;53.320;8.672;2022-12-18T05:54:22;0.43;;;0.40;;
20655;SDS011;10487;53.320;8.672;2022-12-18T05:57:23;0.40;;;0.40;;
20655;SDS011;10487;53.320;8.672;2022-12-18T06:00:25;0.57;;;0.40;;
20655;SDS011;10487;53.320;8.672;2022-12-18T06:03:26;0.40;;;0.40;;
20655;SDS011;10487;53.320;8.672;2022-12-18T06:06:34;0.47;;;0.40;;
20655;SDS011;10487;53.320;8.672;2022-12-18T06:09:35;0.30;;;0.30;;
20655;SDS011;10487;53.320;8.672;2022-12-18T06:12:37;0.40;;;0.30;;
20655;SDS011;10487;53.320;8.672;2022-12-18T06:15:39;1.07;;;0.40;;
20655;SDS011;10487;53.320;8.672;2022-12-18T06:18:41;0.50;;;0.40;;
20655;SDS011;10487;53.320;8.672;2022-12-18T06:21:42;0.40;;;0.40;;
20655;SDS011;10487;53.320;8.672;2022-12-18T06:24:44;0.40;;;0.40;;
20655;SDS011;10487;53.320;8.672;2022-12-18T06:27:47;0.30;;;0.30;;
20655;SDS011;10487;53.320;8.672;2022-12-18T06:30:49;1.10;;;0.40;;
20655;SDS011;10487;53.320;8.672;2022-12-18T06:33:51;0.47;;;0.40;;
20655;SDS011;10487;53.320;8.672;2022-12-18T06:36:52;0.40;;;0.40;;
20655;SDS011;10487;53.320;8.672;2022-12-18T06:39:54;0.33;;;0.30;;
20655;SDS011;10487;53.320;8.672;2022-12-18T06:42:57;0.30;;;0.30;;
20655;SDS011;10487;53.320;8.672;2022-12-18T06:45:59;0.30;;;0.30;;
20655;SDS011;10487;53.320;8.672;2022-12-18T06:49:01;0.30;;;0.30;;
20655;SDS011;10487;53.320;8.672;2022-12-18T06:52:03;0.30;;;0.30;;
20655;SDS011;10487;53.320;8.672;2022-12-18T06:55:05;0.57;;;0.43;;
20655;SDS011;10487;53.320;8.672;2022-12-18T06:58:07;0.60;;;0.30;;
20655;SDS011;10487;53.320;8.672;2022-12-18T07:01:11;0.47;;;0.30;;
20655;SDS011;10487;53.320;8.672;2022-12-18T07:04:14;0.83;;;0.40;;
20655;SDS011;10487;53.320;8.672;2022-12-18T07:07:16;0.30;;;0.30;;
20655;SDS011;10487;53.320;8.672;2022-12-18T07:10:18;0.50;;;0.50;;
20655;SDS011;10487;53.320;8.672;2022-12-18T07:13:20;0.30;;;0.30;;
20655;SDS011;10487;53.320;8.672;2022-12-18T07:16:21;0.30;;;0.30;;
20655;SDS011;10487;53.320;8.672;2022-12-18T07:19:26;0.50;;;0.40;;
20655;SDS011;10487;53.320;8.672;2022-12-18T07:22:27;0.80;;;0.70;;
20655;SDS011;10487;53.320;8.672;2022-12-18T07:25:29;0.93;;;0.40;;
20655;SDS011;10487;53.320;8.672;2022-12-18T07:28:31;0.37;;;0.37;;
20655;SDS011;10487;53.320;8.672;2022-12-18T07:31:33;0.43;;;0.40;;
20655;SDS011;10487;53.320;8.672;2022-12-18T07:34:35;0.30;;;0.30;;
20655;SDS011;10487;53.320;8.672;2022-12-18T07:37:37;0.30;;;0.30;;
20655;SDS011;10487;53.320;8.672;2022-12-18T07:40:38;0.37;;;0.37;;
20655;SDS011;10487;53.320;8.672;2022-12-18T07:43:40;0.30;;;0.30;;
20655;SDS011;10487;53.320;8.672;2022-12-18T07:46:43;0.40;;;0.40;;
20655;SDS011;10487;53.320;8.672;2022-12-18T07:49:45;0.37;;;0.37;;
20655;SDS011;10487;53.320;8.672;2022-12-18T07:52:46;0.57;;;0.57;;
20655;SDS011;10487;53.320;8.672;2022-12-18T07:55:48;0.50;;;0.40;;
20655;SDS011;10487;53.320;8.672;2022-12-18T07:59:09;0.80;;;0.60;;
20655;SDS011;10487;53.320;8.672;2022-12-18T08:02:11;0.80;;;0.60;;
20655;SDS011;10487;53.320;8.672;2022-12-18T08:05:13;0.43;;;0.43;;
20655;SDS011;10487;53.320;8.672;2022-12-18T08:08:14;0.40;;;0.40;;
20655;SDS011;10487;53.320;8.672;2022-12-18T08:11:16;0.90;;;0.60;;
20655;SDS011;10487;53.320;8.672;2022-12-18T08:14:17;0.70;;;0.50;;
20655;SDS011;10487;53.320;8.672;2022-12-18T08:17:19;0.77;;;0.60;;
20655;SDS011;10487;53.320;8.672;2022-12-18T08:20:21;0.60;;;0.50;;
20655;SDS011;10487;53.320;8.672;2022-12-18T08:23:23;0.50;;;0.50;;
20655;SDS011;10487;53.320;8.672;2022-12-18T08:26:29;0.50;;;0.50;;
20655;SDS011;10487;53.320;8.672;2022-12-18T08:29:32;0.90;;;0.50;;
20655;SDS011;10487;53.320;8.672;2022-12-18T08:32:34;1.27;;;0.60;;
20655;SDS011;10487;53.320;8.672;2022-12-18T08:35:37;0.73;;;0.67;;
20655;SDS011;10487;53.320;8.672;2022-12-18T08:38:46;0.90;;;0.67;;
20655;SDS011;10487;53.320;8.672;2022-12-18T08:41:48;0.93;;;0.60;;
20655;SDS011;10487;53.320;8.672;2022-12-18T08:45:10;1.00;;;0.60;;
20655;SDS011;10487;53.320;8.672;2022-12-18T08:48:12;0.77;;;0.50;;
20655;SDS011;10487;53.320;8.672;2022-12-18T08:51:20;0.50;;;0.50;;
20655;SDS011;10487;53.320;8.672;2022-12-18T08:54:22;1.20;;;0.53;;
20655;SDS011;10487;53.320;8.672;2022-12-18T08:57:24;1.00;;;0.47;;
20655;SDS011;10487;53.320;8.672;2022-12-18T09:00:25;1.20;;;0.60;;
20655;SDS011;10487;53.320;8.672;2022-12-18T09:03:27;1.07;;;0.67;;
20655;SDS011;10487;53.320;8.672;2022-12-18T09:06:29;1.17;;;0.70;;
20655;SDS011;10487;53.320;8.672;2022-12-18T09:09:30;1.13;;;0.70;;
20655;SDS011;10487;53.320;8.672;2022-12-18T09:12:32;1.10;;;0.63;;
20655;SDS011;10487;53.320;8.672;2022-12-18T09:15:34;1.70;;;0.90;;
20655;SDS011;10487;53.320;8.672;2022-12-18T09:18:41;1.17;;;0.90;;
20655;SDS011;10487;53.320;8.672;2022-12-18T09:21:43;1.63;;;0.90;;
20655;SDS011;10487;53.320;8.672;2022-12-18T09:24:48;1.00;;;0.90;;
20655;SDS011;10487;53.320;8.672;2022-12-18T09:27:50;0.97;;;0.80;;
20655;SDS011;10487;53.320;8.672;2022-12-18T09:30:51;1.00;;;0.60;;
20655;SDS011;10487;53.320;8.672;2022-12-18T09:33:54;1.37;;;0.70;;
20655;SDS011;10487;53.320;8.672;2022-12-18T09:36:57;1.00;;;0.60;;
20655;SDS011;10487;53.320;8.672;2022-12-18T09:39:58;0.90;;;0.60;;
20655;SDS011;10487;53.320;8.672;2022-12-18T09:43:00;0.70;;;0.60;;
20655;SDS011;10487;53.320;8.672;2022-12-18T09:46:09;0.80;;;0.60;;
20655;SDS011;10487;53.320;8.672;2022-12-18T09:49:30;1.00;;;0.80;;
20655;SDS011;10487;53.320;8.672;2022-12-18T09:52:37;0.67;;;0.60;;
20655;SDS011;10487;53.320;8.672;2022-12-18T09:55:45;0.87;;;0.70;;
20655;SDS011;10487;53.320;8.672;2022-12-18T09:58:53;1.23;;;0.50;;
20655;SDS011;10487;53.320;8.672;2022-12-18T10:01:59;1.03;;;0.67;;
20655;SDS011;10487;53.320;8.672;2022-12-18T10:05:05;0.70;;;0.60;;
20655;SDS011;10487;53.320;8.672;2022-12-18T10:08:39;1.00;;;0.70;;
20655;SDS011;10487;53.320;8.672;2022-12-18T10:11:55;0.70;;;0.70;;
20655;SDS011;10487;53.320;8.672;2022-12-18T10:21:42;1.83;;;1.07;;
20655;SDS011;10487;53.320;8.672;2022-12-18T10:24:59;1.50;;;0.90;;
20655;SDS011;10487;53.320;8.672;2022-12-18T10:28:15;1.23;;;0.63;;
20655;SDS011;10487;53.320;8.672;2022-12-18T10:31:21;0.80;;;0.53;;
20655;SDS011;10487;53.320;8.672;2022-12-18T10:34:25;0.83;;;0.70;;
20655;SDS011;10487;53.320;8.672;2022-12-18T10:37:27;0.50;;;0.50;;
20655;SDS011;10487;53.320;8.672;2022-12-18T10:40:30;1.07;;;0.70;;
20655;SDS011;10487;53.320;8.672;2022-12-18T10:43:33;0.70;;;0.50;;
20655;SDS011;10487;53.320;8.672;2022-12-18T10:46:36;0.67;;;0.53;;
20655;SDS011;10487;53.320;8.672;2022-12-18T10:49:38;0.90;;;0.70;;
20655;SDS011;10487;53.320;8.672;2022-12-18T10:52:54;0.60;;;0.50;;
20655;SDS011;10487;53.320;8.672;2022-12-18T10:55:58;1.23;;;0.80;;
20655;SDS011;10487;53.320;8.672;2022-12-18T11:02:07;1.40;;;0.70;;
20655;SDS011;10487;53.320;8.672;2022-12-18T11:05:35;1.27;;;0.87;;
20655;SDS011;10487;53.320;8.672;2022-12-18T11:08:38;1.80;;;1.07;;
20655;SDS011;10487;53.320;8.672;2022-12-18T11:11:40;1.60;;;1.00;;
20655;SDS011;10487;53.320;8.672;2022-12-18T11:14:43;1.80;;;1.00;;
20655;SDS011;10487;53.320;8.672;2022-12-18T11:17:48;1.30;;;1.00;;
20655;SDS011;10487;53.320;8.672;2022-12-18T11:20:59;1.70;;;1.20;;
20655;SDS011;10487;53.320;8.672;2022-12-18T11:24:15;1.83;;;0.70;;
20655;SDS011;10487;53.320;8.672;2022-12-18T11:27:33;1.70;;;1.23;;
20655;SDS011;10487;53.320;8.672;2022-12-18T11:30:35;2.10;;;1.40;;
20655;SDS011;10487;53.320;8.672;2022-12-18T11:33:37;2.40;;;1.40;;
20655;SDS011;10487;53.320;8.672;2022-12-18T11:37:02;2.33;;;1.30;;
20655;SDS011;10487;53.320;8.672;2022-12-18T11:40:07;1.33;;;0.97;;
20655;SDS011;10487;53.320;8.672;2022-12-18T11:43:28;1.67;;;0.80;;
20655;SDS011;10487;53.320;8.672;2022-12-18T11:46:36;1.40;;;0.90;;
20655;SDS011;10487;53.320;8.672;2022-12-18T11:49:47;1.03;;;0.73;;
20655;SDS011;10487;53.320;8.672;2022-12-18T11:52:51;1.60;;;1.00;;
20655;SDS011;10487;53.320;8.672;2022-12-18T12:03:02;2.23;;;1.30;;
20655;SDS011;10487;53.320;8.672;2022-12-18T12:06:20;1.85;;;1.20;;
20655;SDS011;10487;53.320;8.672;2022-12-18T12:09:53;1.20;;;0.90;;
20655;SDS011;10487;53.320;8.672;2022-12-18T12:13:26;1.53;;;1.00;;
20655;SDS011;10487;53.320;8.672;2022-12-18T12:19:57;1.90;;;0.90;;
20655;SDS011;10487;53.320;8.672;2022-12-18T12:33:10;1.10;;;0.80;;
20655;SDS011;10487;53.320;8.672;2022-12-18T12:39:28;1.08;;;0.80;;
20655;SDS011;10487;53.320;8.672;2022-12-18T12:42:36;0.98;;;0.70;;
20655;SDS011;10487;53.320;8.672;2022-12-18T12:46:08;1.10;;;0.80;;
20655;SDS011;10487;53.320;8.672;2022-12-18T12:49:13;1.37;;;0.87;;
20655;SDS011;10487;53.320;8.672;2022-12-18T12:52:29;1.30;;;1.02;;
20655;SDS011;10487;53.320;8.672;2022-12-18T12:55:36;1.70;;;0.73;;
20655;SDS011;10487;53.320;8.672;2022-12-18T13:02:31;0.87;;;0.70;;
20655;SDS011;10487;53.320;8.672;2022-12-18T13:05:51;1.00;;;0.80;;
20655;SDS011;10487;53.320;8.672;2022-12-18T13:08:59;0.60;;;0.50;;
20655;SDS011;10487;53.320;8.672;2022-12-18T13:12:09;1.08;;;0.60;;
20655;SDS011;10487;53.320;8.672;2022-12-18T13:18:54;0.60;;;0.60;;
20655;SDS011;10487;53.320;8.672;2022-12-18T13:21:58;1.35;;;1.00;;
20655;SDS011;10487;53.320;8.672;2022-12-18T13:25:00;1.30;;;0.70;;
20655;SDS011;10487;53.320;8.672;2022-12-18T13:28:04;1.13;;;0.77;;
20655;SDS011;10487;53.320;8.672;2022-12-18T13:31:12;1.07;;;0.67;;
20655;SDS011;10487;53.320;8.672;2022-12-18T13:34:34;0.85;;;0.60;;
20655;SDS011;10487;53.320;8.672;2022-12-18T13:37:40;0.50;;;0.50;;
20655;SDS011;10487;53.320;8.672;2022-12-18T13:43:50;0.90;;;0.70;;
20655;SDS011;10487;53.320;8.672;2022-12-18T13:46:53;0.82;;;0.70;;
20655;SDS011;10487;53.320;8.672;2022-12-18T13:49:55;1.27;;;0.93;;
20655;SDS011;10487;53.320;8.672;2022-12-18T13:52:58;1.13;;;0.80;;
20655;SDS011;10487;53.320;8.672;2022-12-18T13:56:00;0.90;;;0.70;;
20655;SDS011;10487;53.320;8.672;2022-12-18T13:59:11;1.42;;;1.10;;
20655;SDS011;10487;53.320;8.672;2022-12-18T14:02:17;1.05;;;0.80;;
20655;SDS011;10487;53.320;8.672;2022-12-18T14:05:25;1.20;;;0.85;;
20655;SDS011;10487;53.320;8.672;2022-12-18T14:08:36;1.27;;;1.00;;
20655;SDS011;10487;53.320;8.672;2022-12-18T14:11:45;1.42;;;0.95;;
20655;SDS011;10487;53.320;8.672;2022-12-18T14:14:49;1.02;;;0.77;;
20655;SDS011;10487;53.320;8.672;2022-12-18T14:17:57;1.50;;;1.00;;
20655;SDS011;10487;53.320;8.672;2022-12-18T14:21:01;1.00;;;0.80;;
20655;SDS011;10487;53.320;8.672;2022-12-18T14:24:05;2.45;;;1.50;;
20655;SDS011;10487;53.320;8.672;2022-12-18T14:27:23;1.70;;;1.20;;
20655;SDS011;10487;53.320;8.672;2022-12-18T14:30:27;2.50;;;1.00;;
20655;SDS011;10487;53.320;8.672;2022-12-18T14:33:35;1.88;;;1.13;;
20655;SDS011;10487;53.320;8.672;2022-12-18T14:36:39;2.42;;;1.20;;
20655;SDS011;10487;53.320;8.672;2022-12-18T14:39:51;1.75;;;1.00;;
20655;SDS011;10487;53.320;8.672;2022-12-18T14:43:11;1.65;;;1.23;;
20655;SDS011;10487;53.320;8.672;2022-12-18T14:49:34;1.60;;;1.23;;
20655;SDS011;10487;53.320;8.672;2022-12-18T14:52:37;1.60;;;1.02;;
20655;SDS011;10487;53.320;8.672;2022-12-18T14:55:38;1.60;;;1.30;;
20655;SDS011;10487;53.320;8.672;2022-12-18T14:58:49;1.85;;;1.27;;
20655;SDS011;10487;53.320;8.672;2022-12-18T15:05:21;1.43;;;1.03;;
20655;SDS011;10487;53.320;8.672;2022-12-18T15:08:34;1.88;;;1.38;;
20655;SDS011;10487;53.320;8.672;2022-12-18T15:14:42;1.60;;;1.02;;
20655;SDS011;10487;53.320;8.672;2022-12-18T15:17:43;2.13;;;1.40;;
20655;SDS011;10487;53.320;8.672;2022-12-18T15:20:55;2.22;;;1.25;;
20655;SDS011;10487;53.320;8.672;2022-12-18T15:24:00;2.65;;;1.70;;
20655;SDS011;10487;53.320;8.672;2022-12-18T15:27:01;1.55;;;0.90;;
20655;SDS011;10487;53.320;8.672;2022-12-18T15:33:22;1.85;;;1.10;;
20655;SDS011;10487;53.320;8.672;2022-12-18T15:36:26;2.33;;;1.30;;
20655;SDS011;10487;53.320;8.672;2022-12-18T15:39:27;1.33;;;1.02;;
20655;SDS011;10487;53.320;8.672;2022-12-18T15:42:29;1.70;;;1.00;;
20655;SDS011;10487;53.320;8.672;2022-12-18T15:45:50;3.85;;;1.58;;
20655;SDS011;10487;53.320;8.672;2022-12-18T15:48:56;2.38;;;1.50;;
20655;SDS011;10487;53.320;8.672;2022-12-18T15:52:03;2.00;;;1.27;;
20655;SDS011;10487;53.320;8.672;2022-12-18T15:55:05;1.63;;;1.10;;
20655;SDS011;10487;53.320;8.672;2022-12-18T15:58:31;1.45;;;1.02;;
20655;SDS011;10487;53.320;8.672;2022-12-18T16:01:33;3.50;;;1.60;;
20655;SDS011;10487;53.320;8.672;2022-12-18T16:04:42;3.25;;;2.05;;
20655;SDS011;10487;53.320;8.672;2022-12-18T16:07:45;2.90;;;1.20;;
20655;SDS011;10487;53.320;8.672;2022-12-18T16:10:47;1.45;;;1.08;;
20655;SDS011;10487;53.320;8.672;2022-12-18T16:13:48;1.45;;;1.20;;
20655;SDS011;10487;53.320;8.672;2022-12-18T16:16:58;2.38;;;1.90;;
20655;SDS011;10487;53.320;8.672;2022-12-18T16:20:05;2.10;;;1.48;;
20655;SDS011;10487;53.320;8.672;2022-12-18T16:23:09;2.40;;;1.10;;
20655;SDS011;10487;53.320;8.672;2022-12-18T16:26:10;1.20;;;1.00;;
20655;SDS011;10487;53.320;8.672;2022-12-18T16:29:12;2.50;;;1.58;;
20655;SDS011;10487;53.320;8.672;2022-12-18T16:32:15;2.83;;;1.27;;
20655;SDS011;10487;53.320;8.672;2022-12-18T16:35:20;2.28;;;1.35;;
20655;SDS011;10487;53.320;8.672;2022-12-18T16:38:22;2.25;;;1.17;;
20655;SDS011;10487;53.320;8.672;2022-12-18T16:41:23;2.22;;;1.00;;
20655;SDS011;10487;53.320;8.672;2022-12-18T16:44:34;4.63;;;2.47;;
20655;SDS011;10487;53.320;8.672;2022-12-18T16:47:38;2.45;;;1.50;;
20655;SDS011;10487;53.320;8.672;2022-12-18T16:50:40;4.18;;;1.70;;
20655;SDS011;10487;53.320;8.672;2022-12-18T16:53:41;2.92;;;1.70;;
20655;SDS011;10487;53.320;8.672;2022-12-18T16:56:43;1.95;;;1.38;;
20655;SDS011;10487;53.320;8.672;2022-12-18T16:59:45;1.73;;;1.00;;
20655;SDS011;10487;53.320;8.672;2022-12-18T17:02:48;2.58;;;1.48;;
20655;SDS011;10487;53.320;8.672;2022-12-18T17:05:50;2.60;;;1.90;;
20655;SDS011;10487;53.320;8.672;2022-12-18T17:08:54;2.50;;;1.50;;
20655;SDS011;10487;53.320;8.672;2022-12-18T17:12:10;2.33;;;1.50;;
20655;SDS011;10487;53.320;8.672;2022-12-18T17:15:11;2.97;;;1.63;;
20655;SDS011;10487;53.320;8.672;2022-12-18T17:18:13;1.50;;;0.90;;
20655;SDS011;10487;53.320;8.672;2022-12-18T17:21:15;1.45;;;0.90;;
20655;SDS011;10487;53.320;8.672;2022-12-18T17:24:17;1.30;;;0.68;;
20655;SDS011;10487;53.320;8.672;2022-12-18T17:27:19;2.85;;;1.75;;
20655;SDS011;10487;53.320;8.672;2022-12-18T17:30:21;2.15;;;1.25;;
20655;SDS011;10487;53.320;8.672;2022-12-18T17:33:23;1.75;;;1.20;;
20655;SDS011;10487;53.320;8.672;2022-12-18T17:36:25;1.50;;;0.98;;
20655;SDS011;10487;53.320;8.672;2022-12-18T17:39:31;1.90;;;0.90;;
20655;SDS011;10487;53.320;8.672;2022-12-18T17:42:34;2.70;;;1.35;;
20655;SDS011;10487;53.320;8.672;2022-12-18T17:45:36;3.10;;;1.20;;
20655;SDS011;10487;53.320;8.672;2022-12-18T17:48:39;1.70;;;1.20;;
20655;SDS011;10487;53.320;8.672;2022-12-18T17:51:41;2.55;;;1.40;;
20655;SDS011;10487;53.320;8.672;2022-12-18T17:54:43;1.63;;;1.15;;
20655;SDS011;10487;53.320;8.672;2022-12-18T17:57:45;2.78;;;1.60;;
20655;SDS011;10487;53.320;8.672;2022-12-18T18:00:47;2.70;;;1.60;;
20655;SDS011;10487;53.320;8.672;2022-12-18T18:03:48;2.10;;;1.23;;
20655;SDS011;10487;53.320;8.672;2022-12-18T18:06:53;3.35;;;1.80;;
20655;SDS011;10487;53.320;8.672;2022-12-18T18:09:55;1.52;;;1.17;;
20655;SDS011;10487;53.320;8.672;2022-12-18T18:12:57;2.58;;;1.73;;
20655;SDS011;10487;53.320;8.672;2022-12-18T18:16:16;2.15;;;1.25;;
20655;SDS011;10487;53.320;8.672;2022-12-18T18:19:22;2.47;;;1.80;;
20655;SDS011;10487;53.320;8.672;2022-12-18T18:22:24;2.03;;;1.42;;
20655;SDS011;10487;53.320;8.672;2022-12-18T18:25:26;2.38;;;1.40;;
20655;SDS011;10487;53.320;8.672;2022-12-18T18:28:28;2.72;;;2.00;;
20655;SDS011;10487;53.320;8.672;2022-12-18T18:31:30;2.90;;;1.70;;
20655;SDS011;10487;53.320;8.672;2022-12-18T18:34:41;3.58;;;1.60;;
20655;SDS011;10487;53.320;8.672;2022-12-18T18:37:43;2.25;;;1.50;;
20655;SDS011;10487;53.320;8.672;2022-12-18T18:40:44;3.38;;;2.05;;
20655;SDS011;10487;53.320;8.672;2022-12-18T18:43:46;2.92;;;1.63;;
20655;SDS011;10487;53.320;8.672;2022-12-18T18:46:48;3.55;;;2.10;;
20655;SDS011;10487;53.320;8.672;2022-12-18T18:49:50;3.08;;;1.90;;
20655;SDS011;10487;53.320;8.672;2022-12-18T18:52:52;2.63;;;1.38;;
20655;SDS011;10487;53.320;8.672;2022-12-18T18:55:56;2.50;;;1.42;;
20655;SDS011;10487;53.320;8.672;2022-12-18T18:59:19;3.33;;;2.17;;
20655;SDS011;10487;53.320;8.672;2022-12-18T19:02:31;3.25;;;1.98;;
20655;SDS011;10487;53.320;8.672;2022-12-18T19:05:33;3.45;;;1.60;;
20655;SDS011;10487;53.320;8.672;2022-12-18T19:08:35;2.78;;;1.50;;
20655;SDS011;10487;53.320;8.672;2022-12-18T19:11:38;3.08;;;2.03;;
20655;SDS011;10487;53.320;8.672;2022-12-18T19:14:58;3.20;;;1.35;;
20655;SDS011;10487;53.320;8.672;2022-12-18T19:18:00;2.33;;;1.65;;
20655;SDS011;10487;53.320;8.672;2022-12-18T19:21:03;2.40;;;1.63;;
20655;SDS011;10487;53.320;8.672;2022-12-18T19:24:06;2.00;;;1.33;;
20655;SDS011;10487;53.320;8.672;2022-12-18T19:27:10;4.28;;;2.38;;
20655;SDS011;10487;53.320;8.672;2022-12-18T19:30:12;4.60;;;2.80;;
20655;SDS011;10487;53.320;8.672;2022-12-18T19:33:13;3.05;;;1.85;;
20655;SDS011;10487;53.320;8.672;2022-12-18T19:36:35;2.47;;;1.70;;
20655;SDS011;10487;53.320;8.672;2022-12-18T19:39:39;2.55;;;1.83;;
20655;SDS011;10487;53.320;8.672;2022-12-18T19:42:40;2.35;;;1.42;;
20655;SDS011;10487;53.320;8.672;2022-12-18T19:45:42;2.67;;;1.50;;
20655;SDS011;10487;53.320;8.672;2022-12-18T19:48:45;3.92;;;1.50;;
20655;SDS011;10487;53.320;8.672;2022-12-18T19:51:47;2.47;;;1.80;;
20655;SDS011;10487;53.320;8.672;2022-12-18T19:54:50;3.05;;;1.70;;
20655;SDS011;10487;53.320;8.672;2022-12-18T19:57:52;2.22;;;1.52;;
20655;SDS011;10487;53.320;8.672;2022-12-18T20:00:54;3.80;;;2.08;;